createdAt,value
2017-01-06T00:00:22.719Z,970
2017-01-06T00:01:22.694Z,969.97
2017-01-06T00:02:22.673Z,970
2017-01-06T00:03:22.650Z,969.97
2017-01-06T00:04:22.630Z,969.97
2017-01-06T00:05:22.606Z,970
2017-01-06T00:06:22.737Z,969.97
2017-01-06T00:07:22.713Z,970.04
2017-01-06T00:08:22.541Z,970.01
2017-01-06T00:09:22.519Z,969.99
2017-01-06T00:10:22.496Z,969.99
2017-01-06T00:11:22.472Z,969.99
2017-01-06T00:12:22.452Z,969.96
2017-01-06T00:13:22.428Z,970.05
2017-01-06T00:14:22.406Z,970.03
2017-01-06T00:15:22.384Z,970
2017-01-06T00:16:22.361Z,970.02
2017-01-06T00:17:22.340Z,970.04
2017-01-06T00:18:22.318Z,970.01
2017-01-06T00:19:22.296Z,970.02
2017-01-06T00:20:22.273Z,970.05
2017-01-06T00:21:22.250Z,970.05
2017-01-06T00:22:22.232Z,970.06
2017-01-06T00:23:22.205Z,970.04
2017-01-06T00:24:22.184Z,970.05
2017-01-06T00:25:22.336Z,970.03
2017-01-06T00:26:22.141Z,970.05
2017-01-06T00:27:22.118Z,970.07
2017-01-06T00:28:22.095Z,970.09
2017-01-06T00:29:22.076Z,970.06
2017-01-06T00:30:22.053Z,970.09
2017-01-06T00:31:22.030Z,970.08
2017-01-06T00:32:22.012Z,970.12
2017-01-06T00:33:21.985Z,970.1
2017-01-06T00:34:21.963Z,970.1
2017-01-06T00:35:21.941Z,970.07
2017-01-06T00:36:21.920Z,970.1
2017-01-06T00:37:21.897Z,970.09
2017-01-06T00:38:21.874Z,970.1
2017-01-06T00:39:21.853Z,970.17
2017-01-06T00:40:21.831Z,970.14
2017-01-06T00:41:21.810Z,970.22
2017-01-06T00:42:21.786Z,970.22
2017-01-06T00:43:21.763Z,970.17
2017-01-06T00:44:21.741Z,970.2
2017-01-06T00:45:21.719Z,970.15
2017-01-06T00:46:21.697Z,970.15
2017-01-06T00:47:21.676Z,970.2
2017-01-06T00:48:21.653Z,970.19
2017-01-06T00:49:21.630Z,970.21
2017-01-06T00:50:21.609Z,970.23
2017-01-06T00:51:21.587Z,970.24
2017-01-06T00:52:21.564Z,970.23
2017-01-06T00:53:21.543Z,970.27
2017-01-06T00:54:21.522Z,970.29
2017-01-06T00:55:21.500Z,970.27
2017-01-06T00:56:21.475Z,970.29
2017-01-06T00:57:21.454Z,970.34
2017-01-06T00:58:21.432Z,970.32
2017-01-06T00:59:21.411Z,970.34
2017-01-06T01:00:21.387Z,970.34
2017-01-06T01:01:21.365Z,970.4
2017-01-06T01:02:21.344Z,970.38
2017-01-06T01:03:21.320Z,970.39
2017-01-06T01:04:21.298Z,970.41
2017-01-06T01:05:21.276Z,970.46
2017-01-06T01:06:21.254Z,970.43
2017-01-06T01:07:21.232Z,970.47
2017-01-06T01:08:21.210Z,970.5
2017-01-06T01:09:21.188Z,970.47
2017-01-06T01:10:21.167Z,970.51
2017-01-06T01:11:21.142Z,970.51
2017-01-06T01:12:21.120Z,970.47
2017-01-06T01:13:21.098Z,970.46
2017-01-06T01:14:21.075Z,970.47
2017-01-06T01:15:21.053Z,970.48
2017-01-06T01:16:21.032Z,970.53
2017-01-06T01:17:21.011Z,970.53
2017-01-06T01:18:20.986Z,970.58
2017-01-06T01:19:20.965Z,970.6
2017-01-06T01:20:20.943Z,970.6
2017-01-06T01:21:20.921Z,970.59
2017-01-06T01:22:20.957Z,970.58
2017-01-06T01:23:20.875Z,970.64
2017-01-06T01:24:20.853Z,970.59
2017-01-06T01:25:20.829Z,970.61
2017-01-06T01:26:20.808Z,970.61
2017-01-06T01:27:20.786Z,970.63
2017-01-06T01:28:20.764Z,970.62
2017-01-06T01:29:20.742Z,970.64
2017-01-06T01:30:20.719Z,970.62
2017-01-06T01:31:20.696Z,970.65
2017-01-06T01:32:20.676Z,970.7
2017-01-06T01:33:20.653Z,970.68
2017-01-06T01:34:20.631Z,970.71
2017-01-06T01:35:20.609Z,970.69
2017-01-06T01:36:20.586Z,970.73
2017-01-06T01:37:20.564Z,970.75
2017-01-06T01:38:20.541Z,970.72
2017-01-06T01:39:20.519Z,970.74
2017-01-06T01:40:20.497Z,970.74
2017-01-06T01:41:20.476Z,970.73
2017-01-06T01:42:20.452Z,970.73
2017-01-06T01:43:20.431Z,970.73
2017-01-06T01:44:20.406Z,970.71
2017-01-06T01:45:20.385Z,970.71
2017-01-06T01:46:20.363Z,970.74
2017-01-06T01:47:20.341Z,970.76
2017-01-06T01:48:20.318Z,970.76
2017-01-06T01:49:20.295Z,970.78
2017-01-06T01:50:20.273Z,970.71
2017-01-06T01:51:20.251Z,970.75
2017-01-06T01:52:20.227Z,970.72
2017-01-06T01:53:20.206Z,970.71
2017-01-06T01:54:20.183Z,970.7
2017-01-06T01:55:20.161Z,970.76
2017-01-06T01:56:20.139Z,970.72
2017-01-06T01:57:20.116Z,970.77
2017-01-06T01:58:20.093Z,970.75
2017-01-06T01:59:20.071Z,970.78
2017-01-06T02:00:20.050Z,970.82
2017-01-06T02:01:20.027Z,970.81
2017-01-06T02:02:20.004Z,970.84
2017-01-06T02:03:19.982Z,970.85
2017-01-06T02:04:19.958Z,970.86
2017-01-06T02:05:19.937Z,970.88
2017-01-06T02:06:19.914Z,970.81
2017-01-06T02:07:19.892Z,970.84
2017-01-06T02:08:19.869Z,970.85
2017-01-06T02:09:19.846Z,970.87
2017-01-06T02:10:19.824Z,970.87
2017-01-06T02:11:19.802Z,970.86
2017-01-06T02:12:19.780Z,970.83
2017-01-06T02:13:19.757Z,970.87
2017-01-06T02:14:19.735Z,970.89
2017-01-06T02:15:19.713Z,970.92
2017-01-06T02:16:19.691Z,970.91
2017-01-06T02:17:19.668Z,970.93
2017-01-06T02:18:19.645Z,970.98
2017-01-06T02:19:19.624Z,970.96
2017-01-06T02:20:19.600Z,970.9
2017-01-06T02:21:19.579Z,970.9
2017-01-06T02:22:19.555Z,970.85
2017-01-06T02:23:19.533Z,970.86
2017-01-06T02:24:19.511Z,970.86
2017-01-06T02:25:19.489Z,970.92
2017-01-06T02:26:19.466Z,970.91
2017-01-06T02:27:19.444Z,970.94
2017-01-06T02:28:19.422Z,970.95
2017-01-06T02:29:19.400Z,970.92
2017-01-06T02:30:19.378Z,970.93
2017-01-06T02:31:19.355Z,970.94
2017-01-06T02:32:19.332Z,970.94
2017-01-06T02:33:19.310Z,970.97
2017-01-06T02:34:19.288Z,970.92
2017-01-06T02:35:19.264Z,970.91
2017-01-06T02:36:19.243Z,970.98
2017-01-06T02:37:19.219Z,970.9
2017-01-06T02:38:19.197Z,970.96
2017-01-06T02:39:19.174Z,970.95
2017-01-06T02:40:19.153Z,970.93
2017-01-06T02:41:19.129Z,970.96
2017-01-06T02:42:19.107Z,970.97
2017-01-06T02:43:19.085Z,970.95
2017-01-06T02:44:19.062Z,970.94
2017-01-06T02:45:19.040Z,970.94
2017-01-06T02:46:19.017Z,970.96
2017-01-06T02:47:18.995Z,970.96
2017-01-06T02:48:18.973Z,970.99
2017-01-06T02:49:18.949Z,971.02
2017-01-06T02:50:18.927Z,970.97
2017-01-06T02:51:18.905Z,970.99
2017-01-06T02:52:18.883Z,970.99
2017-01-06T02:53:18.859Z,970.97
2017-01-06T02:54:18.837Z,970.96
2017-01-06T02:55:18.814Z,970.97
2017-01-06T02:56:18.792Z,971.01
2017-01-06T02:57:18.769Z,970.96
2017-01-06T02:58:18.747Z,971.01
2017-01-06T02:59:18.725Z,971
2017-01-06T03:00:18.702Z,970.93
2017-01-06T03:01:18.680Z,970.89
2017-01-06T03:02:18.658Z,970.92
2017-01-06T03:03:18.635Z,970.95
2017-01-06T03:04:18.614Z,970.95
2017-01-06T03:05:18.589Z,970.95
2017-01-06T03:06:18.567Z,970.97
2017-01-06T03:07:18.544Z,970.88
2017-01-06T03:08:18.520Z,970.94
2017-01-06T03:09:18.499Z,970.9
2017-01-06T03:10:18.477Z,970.92
2017-01-06T03:11:18.453Z,970.92
2017-01-06T03:12:18.431Z,970.92
2017-01-06T03:13:18.409Z,970.95
2017-01-06T03:14:18.391Z,970.96
2017-01-06T03:15:18.363Z,970.97
2017-01-06T03:16:18.341Z,970.98
2017-01-06T03:17:18.320Z,970.97
2017-01-06T03:18:18.298Z,970.99
2017-01-06T03:19:18.275Z,971
2017-01-06T03:20:18.253Z,970.99
2017-01-06T03:21:18.231Z,971
2017-01-06T03:22:18.206Z,970.98
2017-01-06T03:23:18.185Z,971.07
2017-01-06T03:24:18.162Z,971.07
2017-01-06T03:25:18.140Z,971.04
2017-01-06T03:26:18.117Z,970.99
2017-01-06T03:27:18.095Z,970.99
2017-01-06T03:28:18.072Z,970.99
2017-01-06T03:29:18.050Z,970.95
2017-01-06T03:30:18.028Z,970.92
2017-01-06T03:31:18.005Z,970.93
2017-01-06T03:32:17.985Z,970.97
2017-01-06T03:33:17.961Z,970.89
2017-01-06T03:34:17.939Z,970.88
2017-01-06T03:35:17.916Z,970.91
2017-01-06T03:36:17.894Z,970.94
2017-01-06T03:37:17.870Z,970.97
2017-01-06T03:38:17.848Z,970.92
2017-01-06T03:39:17.826Z,970.93
2017-01-06T03:40:17.805Z,970.93
2017-01-06T03:41:17.781Z,970.97
2017-01-06T03:42:17.757Z,970.93
2017-01-06T03:43:17.736Z,970.94
2017-01-06T03:44:17.713Z,970.93
2017-01-06T03:45:17.691Z,970.96
2017-01-06T03:46:17.669Z,970.99
2017-01-06T03:47:17.647Z,971.04
2017-01-06T03:48:17.623Z,971.12
2017-01-06T03:49:17.603Z,971.16
2017-01-06T03:50:17.580Z,971.15
2017-01-06T03:51:17.637Z,971.14
2017-01-06T03:52:17.535Z,971.15
2017-01-06T03:53:17.513Z,971.19
2017-01-06T03:54:17.489Z,971.15
2017-01-06T03:55:17.467Z,971.16
2017-01-06T03:56:17.444Z,971.17
2017-01-06T03:57:17.424Z,971.26
2017-01-06T03:58:17.401Z,971.2
2017-01-06T03:59:17.378Z,971.29
2017-01-06T04:00:17.354Z,971.3
2017-01-06T04:01:17.334Z,971.36
2017-01-06T04:02:17.311Z,971.39
2017-01-06T04:03:17.289Z,971.38
2017-01-06T04:04:17.268Z,971.45
2017-01-06T04:05:17.245Z,971.42
2017-01-06T04:06:17.222Z,971.4
2017-01-06T04:07:17.200Z,971.39
2017-01-06T04:08:17.177Z,971.41
2017-01-06T04:09:17.156Z,971.41
2017-01-06T04:10:17.131Z,971.43
2017-01-06T04:11:17.111Z,971.49
2017-01-06T04:12:17.088Z,971.47
2017-01-06T04:13:17.065Z,971.53
2017-01-06T04:14:17.046Z,971.57
2017-01-06T04:15:17.021Z,971.55
2017-01-06T04:16:16.999Z,971.54
2017-01-06T04:17:16.975Z,971.51
2017-01-06T04:18:16.954Z,971.58
2017-01-06T04:19:16.932Z,971.51
2017-01-06T04:20:16.910Z,971.51
2017-01-06T04:21:16.887Z,971.52
2017-01-06T04:22:16.864Z,971.47
2017-01-06T04:23:16.842Z,971.52
2017-01-06T04:24:16.819Z,971.52
2017-01-06T04:25:16.798Z,971.51
2017-01-06T04:26:16.775Z,971.57
2017-01-06T04:27:16.753Z,971.62
2017-01-06T04:28:16.731Z,971.62
2017-01-06T04:29:16.709Z,971.61
2017-01-06T04:30:16.687Z,971.65
2017-01-06T04:31:16.664Z,971.6
2017-01-06T04:32:16.642Z,971.55
2017-01-06T04:33:16.621Z,971.58
2017-01-06T04:34:16.598Z,971.54
2017-01-06T04:35:16.575Z,971.54
2017-01-06T04:36:16.552Z,971.54
2017-01-06T04:37:16.531Z,971.57
2017-01-06T04:38:16.509Z,971.6
2017-01-06T04:39:16.486Z,971.6
2017-01-06T04:40:16.463Z,971.55
2017-01-06T04:41:16.442Z,971.57
2017-01-06T04:42:16.420Z,971.58
2017-01-06T04:43:16.395Z,971.58
2017-01-06T04:44:16.374Z,971.56
2017-01-06T04:45:16.351Z,971.61
2017-01-06T04:46:16.330Z,971.62
2017-01-06T04:47:16.306Z,971.64
2017-01-06T04:48:16.286Z,971.62
2017-01-06T04:49:16.262Z,971.62
2017-01-06T04:50:16.240Z,971.64
2017-01-06T04:51:16.218Z,971.64
2017-01-06T04:52:16.194Z,971.71
2017-01-06T04:53:16.173Z,971.73
2017-01-06T04:54:16.150Z,971.77
2017-01-06T04:55:16.127Z,971.73
2017-01-06T04:56:16.105Z,971.69
2017-01-06T04:57:16.081Z,971.68
2017-01-06T04:58:16.060Z,971.68
2017-01-06T04:59:16.038Z,971.69
2017-01-06T05:00:16.016Z,971.72
2017-01-06T05:01:15.991Z,971.72
2017-01-06T05:02:15.970Z,971.81
2017-01-06T05:03:15.948Z,971.76
2017-01-06T05:04:15.925Z,971.76
2017-01-06T05:05:15.902Z,971.78
2017-01-06T05:06:15.880Z,971.75
2017-01-06T05:07:15.858Z,971.8
2017-01-06T05:08:15.834Z,971.79
2017-01-06T05:09:15.812Z,971.76
2017-01-06T05:10:15.791Z,971.75
2017-01-06T05:11:15.768Z,971.84
2017-01-06T05:12:15.744Z,971.81
2017-01-06T05:13:15.722Z,971.76
2017-01-06T05:14:15.700Z,971.79
2017-01-06T05:15:15.677Z,971.82
2017-01-06T05:16:15.654Z,971.86
2017-01-06T05:17:15.633Z,971.82
2017-01-06T05:18:15.611Z,971.82
2017-01-06T05:19:15.588Z,971.87
2017-01-06T05:20:15.566Z,971.85
2017-01-06T05:21:15.543Z,971.83
2017-01-06T05:22:15.520Z,971.86
2017-01-06T05:23:15.497Z,971.85
2017-01-06T05:24:15.475Z,971.9
2017-01-06T05:25:15.453Z,971.98
2017-01-06T05:26:15.431Z,972.01
2017-01-06T05:27:15.407Z,972.02
2017-01-06T05:28:15.385Z,972.05
2017-01-06T05:29:15.363Z,972
2017-01-06T05:30:15.341Z,972.03
2017-01-06T05:31:15.321Z,972.03
2017-01-06T05:32:15.295Z,971.99
2017-01-06T05:33:15.274Z,971.98
2017-01-06T05:34:15.252Z,971.94
2017-01-06T05:35:15.229Z,971.99
2017-01-06T05:36:15.208Z,971.98
2017-01-06T05:37:15.184Z,971.97
2017-01-06T05:38:15.163Z,971.98
2017-01-06T05:39:15.140Z,971.98
2017-01-06T05:40:15.118Z,971.98
2017-01-06T05:41:15.095Z,971.99
2017-01-06T05:42:15.072Z,972.01
2017-01-06T05:43:15.050Z,972.01
2017-01-06T05:44:15.029Z,972.06
2017-01-06T05:45:15.005Z,972.08
2017-01-06T05:46:14.985Z,972.1
2017-01-06T05:47:15.018Z,972.11
2017-01-06T05:48:14.940Z,972.19
2017-01-06T05:49:14.917Z,972.17
2017-01-06T05:50:14.895Z,972.15
2017-01-06T05:51:14.872Z,972.19
2017-01-06T05:52:14.849Z,972.16
2017-01-06T05:53:14.830Z,972.23
2017-01-06T05:54:14.804Z,972.23
2017-01-06T05:55:14.783Z,972.29
2017-01-06T05:56:14.764Z,972.28
2017-01-06T05:57:14.737Z,972.26
2017-01-06T05:58:14.720Z,972.33
2017-01-06T05:59:14.693Z,972.31
2017-01-06T06:00:14.669Z,972.28
2017-01-06T06:01:14.649Z,972.32
2017-01-06T06:02:14.626Z,972.34
2017-01-06T06:03:14.604Z,972.33
2017-01-06T06:04:14.581Z,972.31
2017-01-06T06:05:14.559Z,972.35
2017-01-06T06:06:14.537Z,972.37
2017-01-06T06:07:14.514Z,972.35
2017-01-06T06:08:14.491Z,972.38
2017-01-06T06:09:14.469Z,972.37
2017-01-06T06:10:14.445Z,972.38
2017-01-06T06:11:14.423Z,972.39
2017-01-06T06:12:14.400Z,972.4
2017-01-06T06:13:14.380Z,972.41
2017-01-06T06:14:14.356Z,972.37
2017-01-06T06:15:14.334Z,972.39
2017-01-06T06:16:14.311Z,972.45
2017-01-06T06:17:14.290Z,972.52
2017-01-06T06:18:14.266Z,972.53
2017-01-06T06:19:14.244Z,972.45
2017-01-06T06:20:14.221Z,972.47
2017-01-06T06:21:14.199Z,972.45
2017-01-06T06:22:14.176Z,972.47
2017-01-06T06:23:14.153Z,972.5
2017-01-06T06:24:14.131Z,972.52
2017-01-06T06:25:14.108Z,972.51
2017-01-06T06:26:14.085Z,972.54
2017-01-06T06:27:14.062Z,972.58
2017-01-06T06:28:14.040Z,972.57
2017-01-06T06:29:14.018Z,972.6
2017-01-06T06:30:13.995Z,972.56
2017-01-06T06:31:13.972Z,972.51
2017-01-06T06:32:13.949Z,972.51
2017-01-06T06:33:13.929Z,972.56
2017-01-06T06:34:13.905Z,972.57
2017-01-06T06:35:13.883Z,972.56
2017-01-06T06:36:13.860Z,972.56
2017-01-06T06:37:13.839Z,972.62
2017-01-06T06:38:13.815Z,972.67
2017-01-06T06:39:13.793Z,972.64
2017-01-06T06:40:13.769Z,972.61
2017-01-06T06:41:13.748Z,972.62
2017-01-06T06:42:13.724Z,972.67
2017-01-06T06:43:13.701Z,972.69
2017-01-06T06:44:13.678Z,972.77
2017-01-06T06:45:13.656Z,972.77
2017-01-06T06:46:13.634Z,972.79
2017-01-06T06:47:13.612Z,972.83
2017-01-06T06:48:13.588Z,972.78
2017-01-06T06:49:13.566Z,972.8
2017-01-06T06:50:13.545Z,972.81
2017-01-06T06:51:13.522Z,972.78
2017-01-06T06:52:13.499Z,972.8
2017-01-06T06:53:13.477Z,972.87
2017-01-06T06:54:13.453Z,972.91
2017-01-06T06:55:13.431Z,972.9
2017-01-06T06:56:13.409Z,972.97
2017-01-06T06:57:13.386Z,972.94
2017-01-06T06:58:13.364Z,972.92
2017-01-06T06:59:13.340Z,972.95
2017-01-06T07:00:13.319Z,972.92
2017-01-06T07:01:13.296Z,972.97
2017-01-06T07:02:13.272Z,972.95
2017-01-06T07:03:13.251Z,972.95
2017-01-06T07:04:13.228Z,972.97
2017-01-06T07:05:13.205Z,972.95
2017-01-06T07:06:13.182Z,972.97
2017-01-06T07:07:13.159Z,973.07
2017-01-06T07:08:13.138Z,973.01
2017-01-06T07:09:13.115Z,972.99
2017-01-06T07:10:13.093Z,973.01
2017-01-06T07:11:13.069Z,973.02
2017-01-06T07:12:13.048Z,973.02
2017-01-06T07:13:13.024Z,972.99
2017-01-06T07:14:13.002Z,973.03
2017-01-06T07:15:12.982Z,973.05
2017-01-06T07:16:12.957Z,973.03
2017-01-06T07:17:12.936Z,972.96
2017-01-06T07:18:12.912Z,972.99
2017-01-06T07:19:12.889Z,973.04
2017-01-06T07:20:12.868Z,973.06
2017-01-06T07:21:12.845Z,973.05
2017-01-06T07:22:12.824Z,973.03
2017-01-06T07:23:12.800Z,973.08
2017-01-06T07:24:12.778Z,973.09
2017-01-06T07:25:12.756Z,973.07
2017-01-06T07:26:12.734Z,973.09
2017-01-06T07:27:12.709Z,973.08
2017-01-06T07:28:12.688Z,973.1
2017-01-06T07:29:12.666Z,973.08
2017-01-06T07:30:12.644Z,973.1
2017-01-06T07:31:12.620Z,973.12
2017-01-06T07:32:12.599Z,973.12
2017-01-06T07:33:12.576Z,973.12
2017-01-06T07:34:12.554Z,973.11
2017-01-06T07:35:12.531Z,973.08
2017-01-06T07:36:12.509Z,973.13
2017-01-06T07:37:12.488Z,973.16
2017-01-06T07:38:12.466Z,973.15
2017-01-06T07:39:12.442Z,973.18
2017-01-06T07:40:12.420Z,973.19
2017-01-06T07:41:12.398Z,973.23
2017-01-06T07:42:12.374Z,973.29
2017-01-06T07:43:12.352Z,973.3
2017-01-06T07:44:12.331Z,973.29
2017-01-06T07:45:12.307Z,973.33
2017-01-06T07:46:12.286Z,973.28
2017-01-06T07:47:12.264Z,973.25
2017-01-06T07:48:12.241Z,973.24
2017-01-06T07:49:12.218Z,973.29
2017-01-06T07:50:12.196Z,973.25
2017-01-06T07:51:12.174Z,973.23
2017-01-06T07:52:12.152Z,973.23
2017-01-06T07:53:12.129Z,973.22
2017-01-06T07:54:12.107Z,973.25
2017-01-06T07:55:12.085Z,973.23
2017-01-06T07:56:12.062Z,973.25
2017-01-06T07:57:12.039Z,973.28
2017-01-06T07:58:12.018Z,973.26
2017-01-06T07:59:11.995Z,973.23
2017-01-06T08:00:11.972Z,973.19
2017-01-06T08:01:11.955Z,973.24
2017-01-06T08:02:11.928Z,973.28
2017-01-06T08:03:11.907Z,973.31
2017-01-06T08:04:11.883Z,973.3
2017-01-06T08:05:11.861Z,973.25
2017-01-06T08:06:11.840Z,973.32
2017-01-06T08:07:11.819Z,973.25
2017-01-06T08:08:11.795Z,973.27
2017-01-06T08:09:11.773Z,973.29
2017-01-06T08:10:11.750Z,973.34
2017-01-06T08:11:11.729Z,973.32
2017-01-06T08:12:11.706Z,973.33
2017-01-06T08:13:11.684Z,973.38
2017-01-06T08:14:11.661Z,973.33
2017-01-06T08:15:11.639Z,973.32
2017-01-06T08:16:11.616Z,973.34
2017-01-06T08:17:11.595Z,973.32
2017-01-06T08:18:11.573Z,973.31
2017-01-06T08:19:11.552Z,973.32
2017-01-06T08:20:11.530Z,973.33
2017-01-06T08:21:11.508Z,973.28
2017-01-06T08:22:11.485Z,973.29
2017-01-06T08:23:11.462Z,973.35
2017-01-06T08:24:11.440Z,973.32
2017-01-06T08:25:11.419Z,973.33
2017-01-06T08:26:11.395Z,973.35
2017-01-06T08:27:11.375Z,973.33
2017-01-06T08:28:11.353Z,973.34
2017-01-06T08:29:11.329Z,973.34
2017-01-06T08:30:11.308Z,973.38
2017-01-06T08:31:11.286Z,973.33
2017-01-06T08:32:11.265Z,973.37
2017-01-06T08:33:11.241Z,973.41
2017-01-06T08:34:11.219Z,973.39
2017-01-06T08:35:11.199Z,973.42
2017-01-06T08:36:11.176Z,973.37
2017-01-06T08:37:11.153Z,973.42
2017-01-06T08:38:11.132Z,973.44
2017-01-06T08:39:11.110Z,973.45
2017-01-06T08:40:11.087Z,973.45
2017-01-06T08:41:11.067Z,973.45
2017-01-06T08:42:11.045Z,973.52
2017-01-06T08:43:11.022Z,973.45
2017-01-06T08:44:10.999Z,973.46
2017-01-06T08:45:10.980Z,973.41
2017-01-06T08:46:10.957Z,973.42
2017-01-06T08:47:10.936Z,973.45
2017-01-06T08:48:10.915Z,973.36
2017-01-06T08:49:10.893Z,973.41
2017-01-06T08:50:10.871Z,973.47
2017-01-06T08:51:10.849Z,973.46
2017-01-06T08:52:10.828Z,973.46
2017-01-06T08:53:10.807Z,973.49
2017-01-06T08:54:10.788Z,973.47
2017-01-06T08:55:10.762Z,973.48
2017-01-06T08:56:10.741Z,973.48
2017-01-06T08:57:10.720Z,973.47
2017-01-06T08:58:10.696Z,973.45
2017-01-06T08:59:10.676Z,973.44
2017-01-06T09:00:10.655Z,973.45
2017-01-06T09:01:10.634Z,973.46
2017-01-06T09:02:10.611Z,973.42
2017-01-06T09:03:10.590Z,973.48
2017-01-06T09:04:10.572Z,973.44
2017-01-06T09:05:10.546Z,973.51
2017-01-06T09:06:10.525Z,973.48
2017-01-06T09:07:10.504Z,973.49
2017-01-06T09:08:10.482Z,973.55
2017-01-06T09:09:10.461Z,973.5
2017-01-06T09:10:10.439Z,973.53
2017-01-06T09:11:10.417Z,973.5
2017-01-06T09:12:10.396Z,973.5
2017-01-06T09:13:10.374Z,973.47
2017-01-06T09:14:10.352Z,973.56
2017-01-06T09:15:10.331Z,973.54
2017-01-06T09:16:10.311Z,973.58
2017-01-06T09:17:10.287Z,973.56
2017-01-06T09:18:10.269Z,973.59
2017-01-06T09:19:10.247Z,973.59
2017-01-06T09:20:10.223Z,973.62
2017-01-06T09:21:10.203Z,973.59
2017-01-06T09:22:10.182Z,973.58
2017-01-06T09:23:10.161Z,973.62
2017-01-06T09:24:10.139Z,973.68
2017-01-06T09:25:10.118Z,973.65
2017-01-06T09:26:10.097Z,973.63
2017-01-06T09:27:10.075Z,973.66
2017-01-06T09:28:10.053Z,973.68
2017-01-06T09:29:10.032Z,973.68
2017-01-06T09:30:10.012Z,973.7
2017-01-06T09:31:09.989Z,973.71
2017-01-06T09:32:09.969Z,973.74
2017-01-06T09:33:09.948Z,973.75
2017-01-06T09:34:09.926Z,973.72
2017-01-06T09:35:09.904Z,973.76
2017-01-06T09:36:09.884Z,973.74
2017-01-06T09:37:09.862Z,973.74
2017-01-06T09:38:09.842Z,973.75
2017-01-06T09:39:09.820Z,973.75
2017-01-06T09:40:09.799Z,973.77
2017-01-06T09:41:09.779Z,973.77
2017-01-06T09:42:09.757Z,973.75
2017-01-06T09:43:09.735Z,973.77
2017-01-06T09:44:09.715Z,973.71
2017-01-06T09:45:09.693Z,973.76
2017-01-06T09:46:09.671Z,973.71
2017-01-06T09:47:09.650Z,973.75
2017-01-06T09:48:09.632Z,973.69
2017-01-06T09:49:09.608Z,973.74
2017-01-06T09:50:09.587Z,973.72
2017-01-06T09:51:09.565Z,973.67
2017-01-06T09:52:09.547Z,973.63
2017-01-06T09:53:09.525Z,973.64
2017-01-06T09:54:09.503Z,973.66
2017-01-06T09:55:09.482Z,973.67
2017-01-06T09:56:09.461Z,973.66
2017-01-06T09:57:09.439Z,973.63
2017-01-06T09:58:09.417Z,973.66
2017-01-06T09:59:09.396Z,973.66
2017-01-06T10:00:09.375Z,973.6
2017-01-06T10:01:09.412Z,973.62
2017-01-06T10:02:09.331Z,973.62
2017-01-06T10:03:09.311Z,973.57
2017-01-06T10:04:09.289Z,973.6
2017-01-06T10:05:09.267Z,973.6
2017-01-06T10:06:09.245Z,973.56
2017-01-06T10:07:09.223Z,973.58
2017-01-06T10:08:09.201Z,973.58
2017-01-06T10:09:09.180Z,973.58
2017-01-06T10:10:09.159Z,973.59
2017-01-06T10:11:09.139Z,973.63
2017-01-06T10:12:09.114Z,973.6
2017-01-06T10:13:09.093Z,973.58
2017-01-06T10:14:09.073Z,973.56
2017-01-06T10:15:09.051Z,973.57
2017-01-06T10:16:09.029Z,973.59
2017-01-06T10:17:09.008Z,973.57
2017-01-06T10:18:08.987Z,973.62
2017-01-06T10:19:08.963Z,973.59
2017-01-06T10:20:08.943Z,973.58
2017-01-06T10:21:08.922Z,973.58
2017-01-06T10:22:08.901Z,973.63
2017-01-06T10:23:08.878Z,973.63
2017-01-06T10:24:08.859Z,973.6
2017-01-06T10:25:08.835Z,973.59
2017-01-06T10:26:08.814Z,973.55
2017-01-06T10:27:08.792Z,973.62
2017-01-06T10:28:08.772Z,973.6
2017-01-06T10:29:08.751Z,973.61
2017-01-06T10:30:08.728Z,973.54
2017-01-06T10:31:08.737Z,973.59
2017-01-06T10:32:08.684Z,973.61
2017-01-06T10:33:08.662Z,973.59
2017-01-06T10:34:08.642Z,973.59
2017-01-06T10:35:08.620Z,973.58
2017-01-06T10:36:08.599Z,973.62
2017-01-06T10:37:08.579Z,973.57
2017-01-06T10:38:08.557Z,973.61
2017-01-06T10:39:08.535Z,973.64
2017-01-06T10:40:08.517Z,973.6
2017-01-06T10:41:08.492Z,973.6
2017-01-06T10:42:08.472Z,973.53
2017-01-06T10:43:08.451Z,973.58
2017-01-06T10:44:08.428Z,973.6
2017-01-06T10:45:08.407Z,973.61
2017-01-06T10:46:08.385Z,973.56
2017-01-06T10:47:08.365Z,973.59
2017-01-06T10:48:08.342Z,973.56
2017-01-06T10:49:08.322Z,973.55
2017-01-06T10:50:08.301Z,973.6
2017-01-06T10:51:08.281Z,973.59
2017-01-06T10:52:08.258Z,973.59
2017-01-06T10:53:08.237Z,973.57
2017-01-06T10:54:08.217Z,973.57
2017-01-06T10:55:08.195Z,973.48
2017-01-06T10:56:08.174Z,973.48
2017-01-06T10:57:08.153Z,973.47
2017-01-06T10:58:08.132Z,973.43
2017-01-06T10:59:08.109Z,973.47
2017-01-06T11:00:08.090Z,973.4
2017-01-06T11:01:08.069Z,973.41
2017-01-06T11:02:08.047Z,973.42
2017-01-06T11:03:08.026Z,973.38
2017-01-06T11:04:08.004Z,973.42
2017-01-06T11:05:07.984Z,973.42
2017-01-06T11:06:07.962Z,973.4
2017-01-06T11:07:07.939Z,973.39
2017-01-06T11:08:07.919Z,973.33
2017-01-06T11:09:07.898Z,973.29
2017-01-06T11:10:07.874Z,973.31
2017-01-06T11:11:07.853Z,973.3
2017-01-06T11:12:07.833Z,973.28
2017-01-06T11:13:07.812Z,973.28
2017-01-06T11:14:07.790Z,973.24
2017-01-06T11:15:07.767Z,973.25
2017-01-06T11:16:07.747Z,973.2
2017-01-06T11:17:07.726Z,973.22
2017-01-06T11:18:07.704Z,973.2
2017-01-06T11:19:07.682Z,973.22
2017-01-06T11:20:07.661Z,973.19
2017-01-06T11:21:07.637Z,973.17
2017-01-06T11:22:07.618Z,973.14
2017-01-06T11:23:07.595Z,973.16
2017-01-06T11:24:07.575Z,973.14
2017-01-06T11:25:07.553Z,973.17
2017-01-06T11:26:07.531Z,973.19
2017-01-06T11:27:07.510Z,973.15
2017-01-06T11:28:07.487Z,973.14
2017-01-06T11:29:07.465Z,973.17
2017-01-06T11:30:07.445Z,973.19
2017-01-06T11:31:07.424Z,973.2
2017-01-06T11:32:07.400Z,973.22
2017-01-06T11:33:07.381Z,973.22
2017-01-06T11:34:07.359Z,973.22
2017-01-06T11:35:07.336Z,973.23
2017-01-06T11:36:07.315Z,973.24
2017-01-06T11:37:07.295Z,973.22
2017-01-06T11:38:07.272Z,973.24
2017-01-06T11:39:07.251Z,973.23
2017-01-06T11:40:07.227Z,973.23
2017-01-06T11:41:07.208Z,973.2
2017-01-06T11:42:07.186Z,973.17
2017-01-06T11:43:07.165Z,973.17
2017-01-06T11:44:07.142Z,973.18
2017-01-06T11:45:07.121Z,973.12
2017-01-06T11:46:07.099Z,973.13
2017-01-06T11:47:07.075Z,973.11
2017-01-06T11:48:07.055Z,973.13
2017-01-06T11:49:07.033Z,973.05
2017-01-06T11:50:07.012Z,973.08
2017-01-06T11:51:06.988Z,973.13
2017-01-06T11:52:06.967Z,973.14
2017-01-06T11:53:06.945Z,973.16
2017-01-06T11:54:06.925Z,973.14
2017-01-06T11:55:06.901Z,973.15
2017-01-06T11:56:06.880Z,973.16
2017-01-06T11:57:06.858Z,973.14
2017-01-06T11:58:06.837Z,973.11
2017-01-06T11:59:06.815Z,973.1
2017-01-06T12:00:06.794Z,973.15
2017-01-06T12:01:06.772Z,973.09
2017-01-06T12:02:06.750Z,973.1
2017-01-06T12:03:06.729Z,973.09
2017-01-06T12:04:06.706Z,973.11
2017-01-06T12:05:06.682Z,973.12
2017-01-06T12:06:06.661Z,973.11
2017-01-06T12:07:06.640Z,973.07
2017-01-06T12:08:06.618Z,973.08
2017-01-06T12:09:06.595Z,973.04
2017-01-06T12:10:06.574Z,973
2017-01-06T12:11:06.552Z,973.03
2017-01-06T12:12:06.529Z,972.95
2017-01-06T12:13:06.508Z,972.99
2017-01-06T12:14:06.485Z,972.97
2017-01-06T12:15:06.464Z,972.95
2017-01-06T12:16:06.442Z,972.93
2017-01-06T12:17:06.419Z,972.94
2017-01-06T12:18:06.396Z,972.93
2017-01-06T12:19:06.373Z,972.92
2017-01-06T12:20:06.353Z,972.91
2017-01-06T12:21:06.330Z,972.94
2017-01-06T12:22:06.311Z,973
2017-01-06T12:23:06.287Z,972.91
2017-01-06T12:24:06.263Z,972.93
2017-01-06T12:25:06.242Z,972.94
2017-01-06T12:26:06.221Z,972.91
2017-01-06T12:27:06.198Z,972.93
2017-01-06T12:28:06.176Z,972.91
2017-01-06T12:29:06.153Z,972.87
2017-01-06T12:30:06.132Z,972.9
2017-01-06T12:31:06.111Z,972.84